Latest Coastal Weather Observations for Rowley Shoals

IDW60701

Issued at 11:03 pm WST Tuesday 17 January 2017 (issued every 10 minutes, with the page automatically refreshed every 10 minutes)

About coastal observations | Map of coastal stations | Coastal observations for WA | Marine services | Other Formats
Station Details ID: 200713 Name: ROWLEY SHOALS Lat: -17.52 Lon: 118.95 Height: 0.0 m
Data from the previous 72 hours. | See also: Recent months at Rowley Shoals
Date/Time
WST
Temp
°C
Wind Pressure Rain since
9am
mm
Weather Cloud Vis
km
Sea
Height
m
Swell
Dir  Spd
kts
Gust
kts
hPa Trend Height
m
Period
s
Dir
17/11:00pm 28.4 W 11 13 1007.8 - - - - - - - - -
17/10:30pm 28.5 W 11 13 1008.0 - - - - - - - - -
17/10:00pm 28.6 W 12 13 1007.9 - - - - - - - - -
17/09:30pm 28.5 W 12 14 1007.6 - - - - - - - - -
17/09:00pm 28.5 W 11 14 1007.3 - - - - - - - - -
17/08:30pm 28.5 W 12 14 1006.9 - - - - - - - - -
17/08:00pm 28.4 W 11 13 1006.6 - - - - - - - - -
17/07:44pm 28.4 W 11 14 1006.5 - - - - - - - - -
17/07:43pm -9.5 W 11 14 1006.5 - - - - - - - - -
17/07:30pm 28.4 W 11 13 1006.4 - - - - - - - - -
17/07:00pm 28.4 WSW 11 14 1006.0 - - - - - - - - -
17/06:30pm 28.5 WSW 11 15 1005.8 - - - - - - - - -
17/06:00pm 28.5 WSW 10 11 1005.5 - - - - - - - - -
17/05:30pm 28.7 WSW 13 15 1005.1 - - - - - - - - -
17/05:00pm 28.5 WSW 13 15 1004.7 - - - - - - - - -
17/04:30pm 28.5 WSW 12 14 1004.8 - - - - - - - - -
17/04:00pm 28.6 WSW 13 15 1004.6 - - - - - - - - -
17/03:30pm 28.7 WSW 12 15 1004.7 - - - - - - - - -
17/03:00pm 28.6 W 12 15 1004.7 - - - - - - - - -
17/02:30pm 28.4 W 12 14 1005.1 - - - - - - - - -
17/02:00pm 28.5 WSW 11 13 1005.1 - - - - - - - - -
17/01:30pm 28.6 WSW 12 13 1005.8 - - - - - - - - -
17/01:00pm 28.5 WSW 12 14 1006.0 - - - - - - - - -
17/12:30pm 28.3 WSW 11 13 1006.3 - - - - - - - - -
17/12:00pm 28.3 WSW 12 13 1006.2 - - - - - - - - -
17/11:30am 28.3 WSW 12 14 1006.6 - - - - - - - - -
17/11:00am 28.5 W 12 14 1006.4 - - - - - - - - -
17/10:30am 28.4 WSW 14 17 1006.6 - - - - - - - - -
17/10:00am 28.5 W 14 16 1006.4 - - - - - - - - -
17/09:30am 28.4 W 15 16 1006.5 - - - - - - - - -
17/09:00am 28.4 W 15 17 1006.4 - - - - - - - - -
17/08:30am 28.3 W 15 17 1006.9 - - - - - - - - -
17/08:00am 28.3 W 15 16 1006.7 - - - - - - - - -
17/07:30am 28.2 WSW 15 17 1006.7 - - - - - - - - -
17/07:00am 28.2 WSW 13 16 1006.5 - - - - - - - - -
17/06:30am 28.3 W 14 16 1006.4 - - - - - - - - -
17/06:00am 28.2 WSW 13 15 1006.1 - - - - - - - - -
17/05:30am 28.2 WSW 14 16 1005.7 - - - - - - - - -
17/05:00am 28.2 W 15 17 1005.4 - - - - - - - - -
17/04:30am 28.3 W 15 17 1005.0 - - - - - - - - -
17/04:00am 28.1 W 14 16 1004.9 - - - - - - - - -
17/03:30am 28.4 W 14 15 1005.0 - - - - - - - - -
17/03:00am 27.1 WSW 17 21 1004.8 - - - - - - - - -
17/02:30am 28.2 W 13 15 1004.7 - - - - - - - - -
17/02:00am 28.5 WSW 14 16 1004.7 - - - - - - - - -
17/01:30am 28.3 WSW 14 16 1005.1 - - - - - - - - -
17/01:00am 28.4 W 14 16 1005.1 - - - - - - - - -
17/12:30am 28.5 W 13 15 1005.2 - - - - - - - - -
17/12:00am 28.6 W 12 14 1005.3 - - - - - - - - -
 
Date/Time
WST
Temp
°C
Wind Pressure Rain since
9am
mm
Weather Cloud Vis
km
Sea
Height
m
Swell
Dir  Spd
kts
Gust
kts
hPa Trend Height
m
Period
s
Dir
16/11:30pm 28.4 W 12 13 1005.8 - - - - - - - - -
16/11:00pm 28.6 WSW 6 11 1005.9 - - - - - - - - -
16/10:30pm 28.5 W 8 13 1006.2 - - - - - - - - -
16/10:03pm 28.7 W 6 7 1006.4 - - - - - - - - -
16/10:02pm 7.8 W 6 7 1006.4 - - - - - - - - -
16/10:00pm 28.6 W 6 7 1006.3 - - - - - - - - -
16/09:30pm 28.6 WSW 7 8 1006.1 - - - - - - - - -
16/09:00pm 28.6 WSW 6 7 1006.1 - - - - - - - - -
16/08:30pm 28.5 WSW 5 6 1006.0 - - - - - - - - -
16/08:00pm 28.6 W 4 5 1005.6 - - - - - - - - -
16/07:30pm 28.5 WSW 5 7 1005.2 - - - - - - - - -
16/07:00pm 28.5 WSW 6 8 1004.8 - - - - - - - - -
16/06:30pm 28.7 SW 5 6 1004.6 - - - - - - - - -
16/06:00pm 28.8 SW 4 6 1004.4 - - - - - - - - -
16/05:30pm 28.8 SW 6 7 1003.9 - - - - - - - - -
16/05:00pm 29.0 SW 4 5 1003.7 - - - - - - - - -
16/04:30pm 29.1 W 5 6 1004.0 - - - - - - - - -
16/04:00pm 28.8 WSW 5 6 1004.1 - - - - - - - - -
16/03:30pm 28.6 WSW 4 6 1004.1 - - - - - - - - -
16/03:00pm 28.8 NW 4 5 1004.3 - - - - - - - - -
16/02:30pm 29.0 NNW 2 4 1004.8 - - - - - - - - -
16/02:00pm 28.6 N 5 7 1004.7 - - - - - - - - -
16/01:30pm 28.4 NNW 7 9 1005.0 - - - - - - - - -
16/01:00pm 28.3 NNW 7 8 1005.1 - - - - - - - - -
16/12:30pm 27.5 NW 11 14 1005.4 - - - - - - - - -
16/12:00pm 26.7 NNW 17 20 1005.4 - - - - - - - - -
16/11:37am 27.1 N 15 22 1005.7 - - - - - - - - -
16/11:30am 29.2 N 9 11 1005.9 - - - - - - - - -
16/11:00am 29.1 N 8 9 1005.9 - - - - - - - - -
16/10:30am 29.1 N 8 10 1006.4 - - - - - - - - -
16/10:00am 29.4 N 10 11 1006.5 - - - - - - - - -
16/09:30am 29.1 N 9 11 1006.8 - - - - - - - - -
16/09:00am 29.0 N 10 12 1006.7 - - - - - - - - -
16/08:30am 28.9 N 10 11 1006.7 - - - - - - - - -
16/08:00am 28.8 N 11 13 1006.5 - - - - - - - - -
16/07:30am 28.6 N 11 13 1006.4 - - - - - - - - -
16/07:00am 28.6 N 10 11 1006.2 - - - - - - - - -
16/06:30am 28.5 NNW 11 13 1006.1 - - - - - - - - -
16/06:00am 28.0 NNW 9 12 1005.7 - - - - - - - - -
16/05:30am 28.3 N 10 11 1005.3 - - - - - - - - -
16/05:00am 28.4 N 11 13 1005.0 - - - - - - - - -
16/04:30am 28.2 N 11 12 1004.9 - - - - - - - - -
16/04:00am 28.4 N 11 13 1004.8 - - - - - - - - -
16/03:30am 28.5 N 10 11 1004.8 - - - - - - - - -
16/03:00am 28.6 N 11 13 1004.7 - - - - - - - - -
16/02:30am 28.5 N 11 13 1004.8 - - - - - - - - -
16/02:00am 28.6 N 11 13 1004.8 - - - - - - - - -
16/01:30am 28.8 N 12 14 1005.2 - - - - - - - - -
16/01:00am 28.8 N 11 13 1005.4 - - - - - - - - -
16/12:30am 28.1 NW 7 9 1005.8 - - - - - - - - -
16/12:00am 28.0 NW 7 9 1006.0 - - - - - - - - -
 
Date/Time
WST
Temp
°C
Wind Pressure Rain since
9am
mm
Weather Cloud Vis
km
Sea
Height
m
Swell
Dir  Spd
kts
Gust
kts
hPa Trend Height
m
Period
s
Dir
15/11:30pm 27.8 NW 12 13 1006.4 - - - - - - - - -
15/11:00pm 28.9 NNW 11 14 1006.4 - - - - - - - - -
15/10:30pm 28.7 N 11 13 1006.8 - - - - - - - - -
15/10:00pm 28.6 N 11 13 1006.8 - - - - - - - - -
15/09:51pm 28.5 NNW 8 11 1007.0 - - - - - - - - -
15/09:50pm 16.2 NNW 8 9 1007.0 - - - - - - - - -
15/09:30pm 27.5 N 10 15 1007.0 - - - - - - - - -
15/09:00pm 27.8 N 10 12 1006.7 - - - - - - - - -
15/08:30pm 28.6 N 12 14 1006.5 - - - - - - - - -
15/08:00pm 28.5 N 12 14 1006.3 - - - - - - - - -
15/07:30pm 28.5 N 10 13 1006.1 - - - - - - - - -
15/07:00pm 28.5 N 10 11 1005.6 - - - - - - - - -
15/06:30pm 28.6 NNE 11 12 1005.2 - - - - - - - - -
15/06:00pm 28.5 N 11 15 1004.9 - - - - - - - - -
15/05:30pm 28.3 N 12 15 1004.9 - - - - - - - - -
15/05:00pm 28.8 N 13 15 1004.6 - - - - - - - - -
15/04:30pm 28.9 N 9 11 1004.6 - - - - - - - - -
15/04:00pm 29.3 N 9 11 1004.6 - - - - - - - - -
15/03:30pm 28.9 NNE 9 11 1004.7 - - - - - - - - -
15/03:00pm 28.7 N 9 11 1004.8 - - - - - - - - -
15/02:30pm 29.3 N 10 11 1005.2 - - - - - - - - -
15/02:00pm 29.0 NNE 8 9 1005.3 - - - - - - - - -
15/01:30pm 28.8 NNE 9 11 1005.7 - - - - - - - - -
15/01:00pm 28.8 NE 5 7 1005.8 - - - - - - - - -
15/12:30pm 28.2 NW 5 9 1006.2 - - - - - - - - -
15/12:00pm 28.9 NNE 6 7 1006.3 - - - - - - - - -
15/11:30am 28.8 NNE 6 8 1006.6 - - - - - - - - -
15/11:00am 28.7 NE 6 7 1006.6 - - - - - - - - -
15/10:30am 28.4 NE 6 7 1006.7 - - - - - - - - -
15/10:00am 28.6 NNE 6 7 1006.8 - - - - - - - - -
15/09:30am 28.6 NNE 6 7 1006.9 - - - - - - - - -
15/09:00am 28.6 NE 6 7 1006.8 - - - - - - - - -
15/08:30am 28.4 NNE 6 7 1006.9 - - - - - - - - -
15/08:00am 28.5 N 4 5 1006.8 - - - - - - - - -
15/07:30am 28.4 NNE 3 4 1006.9 - - - - - - - - -
15/07:00am 28.3 N 4 5 1006.8 - - - - - - - - -
15/06:30am 28.3 NNW 5 6 1006.6 - - - - - - - - -
15/06:00am 28.2 NNW 5 6 1006.3 - - - - - - - - -
15/05:30am 28.1 NW 6 7 1006.0 - - - - - - - - -
15/05:00am 28.3 NW 6 7 1005.8 - - - - - - - - -
15/04:30am 28.2 NW 5 6 1005.6 - - - - - - - - -
15/04:00am 28.2 NW 7 8 1005.6 - - - - - - - - -
15/03:30am 28.2 NW 7 9 1005.6 - - - - - - - - -
15/03:00am 28.3 NW 7 8 1005.5 - - - - - - - - -
15/02:30am 28.3 NW 5 6 1005.7 - - - - - - - - -
15/02:00am 28.3 NW 6 7 1005.6 - - - - - - - - -
15/01:30am 28.3 NNW 6 8 1005.9 - - - - - - - - -
15/01:13am 28.4 NW 7 9 1006.0 - - - - - - - - -
15/01:12am 17.5 NW 7 9 1006.0 - - - - - - - - -
15/01:00am 28.4 NW 8 9 1006.0 - - - - - - - - -
15/12:30am 28.4 NW 9 11 1006.4 - - - - - - - - -
15/12:00am 28.4 NW 9 12 1006.4 - - - - - - - - -
 
Date/Time
WST
Temp
°C
Wind Pressure Rain since
9am
mm
Weather Cloud Vis
km
Sea
Height
m
Swell
Dir  Spd
kts
Gust
kts
hPa Trend Height
m
Period
s
Dir
14/11:30pm 28.5 NW 9 11 1006.7 - - - - - - - - -

Other Formats:

Comma delimited format used in spreadsheet applications
http://www.bom.gov.au/fwo/IDW60701/IDW60701.94207.axf

JavaScript Object Notation format (JSON) in row-major order
http://www.bom.gov.au/fwo/IDW60701/IDW60701.94207.json